M I D A S
Marine Information and Data Acquisition System
Tripno 675 of the Zeeleeuw from 2004-03-24 07:31:20 to 2004-03-24 15:50:46
Back to CruiseResearch ActivitiesStationsMapUnderway DataData graphs

EquipmentUnitsComment
TimeDGPSUTC
LatitudeDGPSDM.mWGS84
LongitudeDGPSDM.mWGS84
HeadingGyrodeg 
SOGDGPSknotsSpeed over ground
COGDGPSdegCourse over ground
DepthEcho soundermeters200 kHz
Missing or incorrect values are displayed as -999
Navigation data collected by the RV Zeeleeuw from 2004-03-24 07:31:20 to 2004-03-24 15:50:46
                                                                                    Next 1000 lines
Time Latitude Longitude Heading SOG COG Depth
2004-03-24 07:31:28 51°13.595 2°56.098 126.1 0.1 274 6
2004-03-24 07:31:34 51°13.595 2°56.097 126.2 0.1 303 6.1
2004-03-24 07:31:39 51°13.595 2°56.097 126.4 0.1 281 6
2004-03-24 07:31:44 51°13.595 2°56.097 126.8 0.1 284 6.1
2004-03-24 07:31:49 51°13.595 2°56.097 127.1 0.1 296 6.1
2004-03-24 07:31:54 51°13.595 2°56.096 127.7 0.1 296 6.1
2004-03-24 07:31:58 51°13.595 2°56.096 128.4 0.1 263 6.1
2004-03-24 07:32:04 51°13.595 2°56.096 129.1 0.1 249 6.1
2004-03-24 07:32:09 51°13.595 2°56.096 129.9 0.1 221 6.1
2004-03-24 07:32:14 51°13.594 2°56.096 131 0.1 186 6.1
2004-03-24 07:32:18 51°13.594 2°56.096 132 0.1 184 6.1
2004-03-24 07:32:24 51°13.594 2°56.096 132.4 0.1 160 6.1
2004-03-24 07:32:29 51°13.594 2°56.096 132.5 0.3 147 6.1
2004-03-24 07:32:34 51°13.594 2°56.097 132.5 0.5 133 6.1
2004-03-24 07:32:39 51°13.593 2°56.098 132.7 0.7 135 5.9
2004-03-24 07:32:44 51°13.592 2°56.1 132.8 1.1 130 5.9
2004-03-24 07:32:48 51°13.591 2°56.101 133 1.2 131 5.9
2004-03-24 07:32:54 51°13.59 2°56.103 133 1.3 130 5.9
2004-03-24 07:32:58 51°13.589 2°56.106 132.5 1.4 129 5.9
2004-03-24 07:33:04 51°13.587 2°56.109 131.9 1.7 128 6.3
2004-03-24 07:33:09 51°13.586 2°56.113 131.1 1.9 127 6.1
2004-03-24 07:33:14 51°13.584 2°56.117 130 2 125 6.3
2004-03-24 07:33:18 51°13.583 2°56.12 128.7 2.3 123 6.4
2004-03-24 07:33:24 51°13.581 2°56.126 127.3 2.4 121 6.8
2004-03-24 07:33:29 51°13.579 2°56.13 125.8 2.6 120 7
2004-03-24 07:33:34 51°13.577 2°56.136 124.2 2.7 119 6.9
2004-03-24 07:33:38 51°13.576 2°56.141 122.7 3 118 6.7
2004-03-24 07:33:44 51°13.573 2°56.148 121.5 3.2 117 6.4
2004-03-24 07:33:49 51°13.572 2°56.154 120.6 3.2 115 6.4
2004-03-24 07:33:54 51°13.57 2°56.161 119.9 3.1 115 6.7
2004-03-24 07:33:58 51°13.568 2°56.166 119.4 3.1 115 7.6
2004-03-24 07:34:04 51°13.566 2°56.174 119.2 3.2 115 7.9
2004-03-24 07:34:08 51°13.564 2°56.179 119.1 3.3 115 8
2004-03-24 07:34:14 51°13.562 2°56.187 119.1 3.3 115 8.2
2004-03-24 07:34:18 51°13.56 2°56.192 119.1 3.2 117 8.1
2004-03-24 07:34:24 51°13.558 2°56.199 119.5 3.3 118 8.1
2004-03-24 07:34:29 51°13.555 2°56.206 121.2 3.4 120 8.1
2004-03-24 07:34:34 51°13.552 2°56.212 125.4 3.4 120 7.8
2004-03-24 07:34:39 51°13.549 2°56.217 130.3 3.5 130 7.9
2004-03-24 07:34:44 51°13.545 2°56.223 135.7 3.5 134 7.9
2004-03-24 07:34:49 51°13.541 2°56.227 141.5 3.6 143 8
2004-03-24 07:34:54 51°13.536 2°56.231 147.3 3.7 148 8.1
2004-03-24 07:34:58 51°13.533 2°56.234 153.5 3.8 154 8.2
2004-03-24 07:35:04 51°13.527 2°56.237 159.6 3.6 163 8.1
2004-03-24 07:35:09 51°13.523 2°56.239 164.4 3.4 165 8.3
2004-03-24 07:35:14 51°13.519 2°56.24 167.1 3.4 165 8.2
2004-03-24 07:35:18 51°13.517 2°56.241 170.5 2.4 169 8.7
2004-03-24 07:35:24 51°13.514 2°56.241 175.9 1.4 175 8.6
2004-03-24 07:35:28 51°13.514 2°56.241 181.6 1.1 176 8.9
2004-03-24 07:35:34 51°13.513 2°56.241 187.1 0.2 180 8.9
2004-03-24 07:35:38 51°13.514 2°56.241 192 0.2 11 8.8
2004-03-24 07:35:44 51°13.516 2°56.242 195.9 0.9 9 8.7
2004-03-24 07:35:49 51°13.518 2°56.242 199 1.4 12 8.7
2004-03-24 07:35:54 51°13.52 2°56.243 201.9 1.6 15 -999
2004-03-24 07:35:58 51°13.522 2°56.244 203.9 1.8 16 -999
2004-03-24 07:36:04 51°13.525 2°56.246 205.9 1.9 18 -999
2004-03-24 07:36:10 51°13.528 2°56.247 207 1.8 16 -999
2004-03-24 07:36:14 51°13.53 2°56.248 207.4 1.6 16 -999
2004-03-24 07:36:20 51°13.531 2°56.248 208.3 1.3 18 -999
2004-03-24 07:36:24 51°13.532 2°56.249 209.3 0.8 6 -999
2004-03-24 07:36:30 51°13.533 2°56.248 211.3 0.5 4 -999
2004-03-24 07:36:34 51°13.533 2°56.248 214 0.5 332 -999
2004-03-24 07:36:40 51°13.533 2°56.247 216.2 0.3 301 -999
2004-03-24 07:36:45 51°13.533 2°56.245 219.6 0.6 248 -999
2004-03-24 07:36:50 51°13.532 2°56.244 223.5 0.8 237 7.9
2004-03-24 07:36:54 51°13.531 2°56.242 227.4 1.1 236 8
2004-03-24 07:37:00 51°13.53 2°56.24 231.6 1.2 231 -999
2004-03-24 07:37:05 51°13.53 2°56.237 235.4 1.1 242 -999
2004-03-24 07:37:09 51°13.529 2°56.236 238.5 0.9 237 -999
2004-03-24 07:37:14 51°13.529 2°56.236 240.8 0.5 242 -999
2004-03-24 07:37:20 51°13.529 2°56.237 243.5 0.1 280 -999
2004-03-24 07:37:24 51°13.53 2°56.238 245.9 0.7 61 -999
2004-03-24 07:37:30 51°13.53 2°56.241 247.8 1 64 -999
2004-03-24 07:37:34 51°13.531 2°56.243 249.2 1.2 66 8.1
2004-03-24 07:37:38 51°13.532 2°56.244 250.5 1.1 62 -999
2004-03-24 07:37:45 51°13.532 2°56.244 251.1 0.3 19 -999
2004-03-24 07:37:50 51°13.532 2°56.242 253.2 0.7 257 -999
2004-03-24 07:37:54 51°13.532 2°56.239 258.5 1.8 262 -999
2004-03-24 07:38:00 51°13.532 2°56.233 265.9 2 262 -999
2004-03-24 07:38:04 51°13.532 2°56.228 271.8 2.5 273 -999
2004-03-24 07:38:10 51°13.533 2°56.221 279.8 2.7 277 -999
2004-03-24 07:38:15 51°13.534 2°56.214 284.9 2.9 282 -999
2004-03-24 07:38:18 51°13.535 2°56.21 288.9 3.2 283 8.3
2004-03-24 07:38:24 51°13.537 2°56.2 291.3 4 288 8.4
2004-03-24 07:38:29 51°13.539 2°56.191 294.5 4 288 8.4
2004-03-24 07:38:34 51°13.542 2°56.182 298.7 4.6 296 8.4
2004-03-24 07:38:39 51°13.546 2°56.172 301.6 5 297 8.4
2004-03-24 07:38:44 51°13.55 2°56.161 304.1 5.5 300 8.4
2004-03-24 07:38:49 51°13.554 2°56.15 305.3 5.8 300 8.3
2004-03-24 07:38:54 51°13.558 2°56.139 305.4 6 300 8.2
2004-03-24 07:38:59 51°13.563 2°56.126 305.4 6.3 301 8.3
2004-03-24 07:39:04 51°13.568 2°56.114 305.5 6.6 301 8
2004-03-24 07:39:09 51°13.572 2°56.1 305.6 6.7 301 8.1
2004-03-24 07:39:14 51°13.576 2°56.087 305.6 6.9 301 8.1
2004-03-24 07:39:20 51°13.582 2°56.071 305.7 7.1 301 8
2004-03-24 07:39:24 51°13.586 2°56.06 306 7.2 301 7.9
2004-03-24 07:39:29 51°13.592 2°56.047 306.4 7.1 302 7.9
2004-03-24 07:39:34 51°13.597 2°56.034 307.1 7.1 303 7.9
2004-03-24 07:39:38 51°13.602 2°56.024 307.8 7 303 7.8
2004-03-24 07:39:44 51°13.608 2°56.009 308.4 6.9 303 7.9
2004-03-24 07:39:49 51°13.614 2°55.996 308.5 6.9 303 8.2
2004-03-24 07:39:54 51°13.619 2°55.983 308.4 6.8 303 8.9
2004-03-24 07:39:59 51°13.624 2°55.971 308.4 6.8 303 8.9
2004-03-24 07:40:04 51°13.629 2°55.959 308.8 6.7 304 8.9
2004-03-24 07:40:09 51°13.634 2°55.946 308.8 6.7 303 8.8
2004-03-24 07:40:14 51°13.639 2°55.934 308.4 6.6 303 8.9
2004-03-24 07:40:18 51°13.643 2°55.924 308.4 6.6 303 8.8
2004-03-24 07:40:24 51°13.649 2°55.91 308.4 6.5 304 8.9
2004-03-24 07:40:29 51°13.653 2°55.898 308.4 6.5 304 8.9
2004-03-24 07:40:34 51°13.658 2°55.886 308.5 6.4 304 8.7
2004-03-24 07:40:38 51°13.662 2°55.876 308.8 6.4 304 8.7
2004-03-24 07:40:44 51°13.668 2°55.862 308.9 6.4 304 8.7
2004-03-24 07:40:49 51°13.673 2°55.85 309.2 6.4 304 8.7
2004-03-24 07:40:54 51°13.678 2°55.838 309.8 6.5 305 8.7
2004-03-24 07:41:00 51°13.685 2°55.824 310.5 6.6 306 8.7
2004-03-24 07:41:04 51°13.689 2°55.815 311.1 6.8 307 9.2
2004-03-24 07:41:08 51°13.694 2°55.805 311.8 6.9 308 10.3
2004-03-24 07:41:14 51°13.701 2°55.79 312.2 6.9 308 11.1
2004-03-24 07:41:19 51°13.707 2°55.778 312.8 7 308 11.2
2004-03-24 07:41:24 51°13.714 2°55.766 313.5 7.2 310 11.6
2004-03-24 07:41:29 51°13.721 2°55.754 314.7 7.2 312 10.7
2004-03-24 07:41:34 51°13.728 2°55.742 316.2 7.3 312 9.2
2004-03-24 07:41:38 51°13.733 2°55.733 318.1 7.3 314 8.2
2004-03-24 07:41:44 51°13.742 2°55.72 320 7.3 315 8.3
2004-03-24 07:41:48 51°13.748 2°55.712 321.8 7.3 321 8.2
2004-03-24 07:41:54 51°13.758 2°55.7 325.1 7.3 322 8.2
2004-03-24 07:41:59 51°13.766 2°55.69 326.9 7.3 323 8.1
2004-03-24 07:42:04 51°13.774 2°55.681 328.7 7.4 324 8.1
2004-03-24 07:42:09 51°13.783 2°55.671 330 7.4 325 8.2
2004-03-24 07:42:14 51°13.791 2°55.662 330.9 7.4 326 8.3
2004-03-24 07:42:18 51°13.798 2°55.655 331.5 7.5 326 8.9
2004-03-24 07:42:24 51°13.809 2°55.644 332.6 7.5 330 8.8
2004-03-24 07:42:29 51°13.818 2°55.636 334.6 7.6 332 8.9
2004-03-24 07:42:34 51°13.827 2°55.628 337 7.6 333 8.7
2004-03-24 07:42:39 51°13.837 2°55.621 339.3 7.6 334 8.6
2004-03-24 07:42:44 51°13.846 2°55.614 340.9 7.5 336 8.5
2004-03-24 07:42:48 51°13.854 2°55.608 341.7 7.5 336 8.4
2004-03-24 07:42:54 51°13.866 2°55.601 341.9 7.5 336 8.5
2004-03-24 07:42:58 51°13.873 2°55.595 341.9 7.5 336 8.3
2004-03-24 07:43:04 51°13.885 2°55.587 341.8 7.6 337 8.5
2004-03-24 07:43:09 51°13.895 2°55.58 341.4 7.8 336 8.3
2004-03-24 07:43:14 51°13.905 2°55.573 341.3 7.9 336 8.5
2004-03-24 07:43:18 51°13.913 2°55.567 341.8 8 337 8.2
2004-03-24 07:43:24 51°13.925 2°55.559 341.8 8.1 336 8.2
2004-03-24 07:43:29 51°13.935 2°55.551 340.7 8.2 335 8.4
2004-03-24 07:43:34 51°13.946 2°55.544 340.4 8.2 335 8.3
2004-03-24 07:43:38 51°13.954 2°55.538 340.3 8.3 335 8.7
2004-03-24 07:43:44 51°13.967 2°55.528 340.3 8.4 335 8.8
2004-03-24 07:43:49 51°13.978 2°55.52 340.7 8.4 336 8.9
2004-03-24 07:43:54 51°13.988 2°55.512 340.8 8.5 336 8.8
2004-03-24 07:44:00 51°14.001 2°55.503 340.8 8.5 336 8.9
2004-03-24 07:44:04 51°14.01 2°55.497 341.2 8.5 336 8.7
2004-03-24 07:44:08 51°14.019 2°55.491 341.6 8.6 336 8.9
2004-03-24 07:44:14 51°14.032 2°55.481 341.4 8.6 336 9
2004-03-24 07:44:19 51°14.043 2°55.473 341.1 8.6 335 9.5
2004-03-24 07:44:24 51°14.054 2°55.465 341.3 8.9 336 9.4
2004-03-24 07:44:29 51°14.066 2°55.457 341.7 9 336 9.4
2004-03-24 07:44:34 51°14.077 2°55.449 341.8 9.1 336 9.6
2004-03-24 07:44:38 51°14.086 2°55.442 341.5 9.2 336 9.6
2004-03-24 07:44:44 51°14.1 2°55.431 341.1 9.3 335 9.6
2004-03-24 07:44:48 51°14.11 2°55.424 341.2 9.4 336 9.6
2004-03-24 07:44:54 51°14.124 2°55.414 341.3 9.5 335 9.7
2004-03-24 07:44:59 51°14.136 2°55.405 341.1 9.5 335 9.6
2004-03-24 07:45:04 51°14.148 2°55.395 340.4 9.6 333 9.6
2004-03-24 07:45:09 51°14.16 2°55.385 338.4 9.6 331 9.4
2004-03-24 07:45:14 51°14.172 2°55.374 337.1 9.6 330 9.6
2004-03-24 07:45:18 51°14.181 2°55.366 336 9.7 330 9.6
2004-03-24 07:45:24 51°14.194 2°55.352 334.5 9.7 327 9.6
2004-03-24 07:45:29 51°14.205 2°55.34 332.8 9.7 326 9.6
2004-03-24 07:45:34 51°14.216 2°55.328 330.8 9.8 324 9.5
2004-03-24 07:45:39 51°14.227 2°55.314 328.8 9.9 323 9.5
2004-03-24 07:45:44 51°14.238 2°55.299 326.6 10.2 319 9.4
2004-03-24 07:45:48 51°14.247 2°55.286 325.1 10.3 319 9.5
2004-03-24 07:45:54 51°14.259 2°55.267 323.7 10.5 317 9.5
2004-03-24 07:45:58 51°14.267 2°55.253 320.7 10.6 315 9.4
2004-03-24 07:46:04 51°14.279 2°55.232 318.4 10.7 312 9.3
2004-03-24 07:46:09 51°14.289 2°55.213 317.2 10.9 312 9.3
2004-03-24 07:46:14 51°14.299 2°55.195 317.1 11.1 311 9.4
2004-03-24 07:46:20 51°14.311 2°55.171 315.9 11.3 309 9.4
2004-03-24 07:46:24 51°14.319 2°55.155 314.4 11.4 308 9.4
2004-03-24 07:46:29 51°14.329 2°55.136 314.2 11.5 310 9.3
2004-03-24 07:46:34 51°14.34 2°55.116 314.7 11.7 310 9.2
2004-03-24 07:46:38 51°14.348 2°55.099 314.6 11.8 309 9.2
2004-03-24 07:46:44 51°14.36 2°55.074 314.2 12 308 9.1
2004-03-24 07:46:49 51°14.371 2°55.054 313.9 12 308 9.5
2004-03-24 07:46:54 51°14.382 2°55.033 314.9 12.2 311 9.6
2004-03-24 07:46:59 51°14.394 2°55.013 317.3 12.5 313 9.5
2004-03-24 07:47:04 51°14.408 2°54.994 320.3 12.8 315 9.3
2004-03-24 07:47:09 51°14.422 2°54.976 324.3 13 321 9.2
2004-03-24 07:47:14 51°14.437 2°54.96 328.5 13 323 9.1
2004-03-24 07:47:18 51°14.449 2°54.947 333.1 13.2 326 9
2004-03-24 07:47:24 51°14.467 2°54.927 334.1 13.2 325 8.6
2004-03-24 07:47:29 51°14.482 2°54.911 335.4 13.2 326 8.6
2004-03-24 07:47:34 51°14.498 2°54.896 336.7 13.1 328 8.5
2004-03-24 07:47:38 51°14.511 2°54.884 338.9 13 330 8.4
2004-03-24 07:47:44 51°14.529 2°54.867 339.8 13.2 329 8.3
2004-03-24 07:47:49 51°14.545 2°54.851 339.6 13.2 329 8.4
2004-03-24 07:47:54 51°14.56 2°54.835 338.5 13.3 327 8.3
2004-03-24 07:47:59 51°14.576 2°54.82 338 13.2 328 8.2
2004-03-24 07:48:04 51°14.592 2°54.806 338.7 13.2 331 8.1
2004-03-24 07:48:09 51°14.608 2°54.793 340.9 13.1 333 8.1
2004-03-24 07:48:14 51°14.625 2°54.782 343.3 13.1 335 8.1
2004-03-24 07:48:18 51°14.639 2°54.774 346.3 13.1 338 8
2004-03-24 07:48:24 51°14.659 2°54.762 348.3 13.1 340 7.9
2004-03-24 07:48:29 51°14.676 2°54.753 350 13.1 340 8.2
2004-03-24 07:48:34 51°14.693 2°54.744 351.4 12.9 342 8.1
2004-03-24 07:48:38 51°14.707 2°54.736 351.4 13 340 8
2004-03-24 07:48:44 51°14.727 2°54.724 350.1 13 339 7.9
2004-03-24 07:48:48 51°14.741 2°54.716 349.2 13 339 8
2004-03-24 07:48:54 51°14.761 2°54.703 348.5 13 338 7.8
2004-03-24 07:48:58 51°14.774 2°54.695 348.1 13 338 5.7
2004-03-24 07:49:04 51°14.794 2°54.683 348.4 12.9 340 7.8
2004-03-24 07:49:09 51°14.811 2°54.674 349.8 12.9 341 7.8
2004-03-24 07:49:14 51°14.828 2°54.666 351.3 12.9 343 7.7
2004-03-24 07:49:18 51°14.842 2°54.66 352.8 12.9 343 7.7
2004-03-24 07:49:24 51°14.862 2°54.65 354 12.8 344 8
2004-03-24 07:49:29 51°14.879 2°54.642 354 12.8 343 7.6
2004-03-24 07:49:34 51°14.896 2°54.633 352.9 12.8 342 7.8
2004-03-24 07:49:39 51°14.913 2°54.623 351 12.9 340 7.6
2004-03-24 07:49:44 51°14.93 2°54.614 349.9 12.9 341 5.6
2004-03-24 07:49:49 51°14.947 2°54.605 350 12.8 342 7.5
2004-03-24 07:49:54 51°14.964 2°54.597 351.1 12.8 343 7.4
2004-03-24 07:49:58 51°14.977 2°54.591 352.7 12.7 344 5.4
2004-03-24 07:50:04 51°14.997 2°54.583 354.3 12.5 345 6.9
2004-03-24 07:50:09 51°15.014 2°54.576 354.2 12.4 344 7.1
2004-03-24 07:50:14 51°15.03 2°54.567 353.2 12.4 342 6.9
2004-03-24 07:50:18 51°15.043 2°54.559 351.3 12.3 339 6.6
2004-03-24 07:50:24 51°15.062 2°54.546 349.3 12.2 338 6.7
2004-03-24 07:50:28 51°15.075 2°54.538 347.9 12.2 338 6.7
2004-03-24 07:50:34 51°15.093 2°54.527 347.6 12.1 338 6.6
2004-03-24 07:50:38 51°15.106 2°54.519 347.8 12.1 339 6.7
2004-03-24 07:50:44 51°15.125 2°54.509 348.7 12.1 340 6.7
2004-03-24 07:50:49 51°15.141 2°54.501 350.3 12.2 344 6.9
2004-03-24 07:50:54 51°15.157 2°54.494 352.6 12.3 344 6.9
2004-03-24 07:50:58 51°15.171 2°54.489 353.4 12.2 345 6.9
2004-03-24 07:51:04 51°15.19 2°54.48 354.5 12.3 345 6.9
2004-03-24 07:51:09 51°15.207 2°54.473 355.1 12.3 345 7.1
2004-03-24 07:51:14 51°15.223 2°54.465 354.3 12.3 345 7.1
2004-03-24 07:51:19 51°15.24 2°54.456 352.6 12.4 342 7.2
2004-03-24 07:51:24 51°15.256 2°54.447 352 12.5 342 7.3
2004-03-24 07:51:29 51°15.273 2°54.439 351.4 12.5 342 7.2
2004-03-24 07:51:34 51°15.289 2°54.43 351.3 12.6 342 7.4
2004-03-24 07:51:38 51°15.303 2°54.423 351.8 12.7 343 7.4
2004-03-24 07:51:44 51°15.323 2°54.414 352.5 12.6 344 5.5
2004-03-24 07:51:48 51°15.336 2°54.407 352.7 12.7 344 7.5
2004-03-24 07:51:54 51°15.357 2°54.399 353.5 12.7 345 7.6
2004-03-24 07:51:58 51°15.371 2°54.395 355.5 12.8 348 7.5
2004-03-24 07:52:04 51°15.392 2°54.39 358.3 12.7 353 7.6
2004-03-24 07:52:08 51°15.405 2°54.388 1.5 12.6 355 7.7
2004-03-24 07:52:14 51°15.426 2°54.387 4.3 12.6 356 7.6
2004-03-24 07:52:20 51°15.447 2°54.386 6.5 12.6 358 7.8
2004-03-24 07:52:24 51°15.461 2°54.385 7.9 12.6 359 7.8
2004-03-24 07:52:29 51°15.479 2°54.384 8.6 12.6 358 7.9
2004-03-24 07:52:34 51°15.496 2°54.382 7.2 12.6 356 7.9
2004-03-24 07:52:38 51°15.51 2°54.379 5.6 12.8 354 8
2004-03-24 07:52:44 51°15.532 2°54.375 4.7 12.8 353 7.9
2004-03-24 07:52:49 51°15.549 2°54.371 3.5 12.8 351 8.1
2004-03-24 07:52:54 51°15.567 2°54.365 1.9 12.9 350 8.1
2004-03-24 07:52:58 51°15.581 2°54.36 0.2 12.9 348 8.3
2004-03-24 07:53:04 51°15.602 2°54.352 358.7 12.9 347 8.3
2004-03-24 07:53:09 51°15.619 2°54.346 357.8 13 347 8.3
2004-03-24 07:53:14 51°15.637 2°54.34 357.9 13 348 8.3
2004-03-24 07:53:18 51°15.651 2°54.336 359.4 13 350 8.3
2004-03-24 07:53:24 51°15.672 2°54.333 1.4 12.9 354 8.5
2004-03-24 07:53:28 51°15.687 2°54.332 4.3 12.9 357 8.5
2004-03-24 07:53:34 51°15.708 2°54.331 6.5 12.9 358 8.7
2004-03-24 07:53:39 51°15.726 2°54.333 10.1 12.9 358 8.8
2004-03-24 07:53:44 51°15.744 2°54.335 12.9 12.8 4 8.7
2004-03-24 07:53:48 51°15.758 2°54.338 14.5 12.9 6 8.9
2004-03-24 07:53:54 51°15.779 2°54.34 15.2 12.9 5 8.9
2004-03-24 07:53:58 51°15.793 2°54.342 15.2 12.8 4 8.9
2004-03-24 07:54:04 51°15.815 2°54.343 14 13 2 9
2004-03-24 07:54:09 51°15.833 2°54.344 12.2 13.1 1 9.1
2004-03-24 07:54:14 51°15.851 2°54.345 11.3 13.1 1 9.1
2004-03-24 07:54:18 51°15.866 2°54.345 11.5 13 1 9.2
2004-03-24 07:54:24 51°15.887 2°54.346 11.2 12.9 1 9.3
2004-03-24 07:54:29 51°15.905 2°54.346 10.9 12.9   9.2
2004-03-24 07:54:34 51°15.923 2°54.346 10.7 13   9.3
2004-03-24 07:54:38 51°15.938 2°54.345 10.2 13 358 9.4
2004-03-24 07:54:44 51°15.959 2°54.34 7.9 12.9 356 9.3
2004-03-24 07:54:48 51°15.972 2°54.335 3.2 12.7 347 9.6
2004-03-24 07:54:54 51°15.992 2°54.324 358.4 12.7 342 9.3
2004-03-24 07:55:00 51°16.012 2°54.312 353 12.6 340 9.5
2004-03-24 07:55:04 51°16.024 2°54.304 350 12.1 338 9.6
2004-03-24 07:55:09 51°16.039 2°54.294 349 12 338 9.7
2004-03-24 07:55:14 51°16.054 2°54.285 349.4 11.7 339 9.8
2004-03-24 07:55:18 51°16.067 2°54.278 350.6 11.6 340 9.9
2004-03-24 07:55:24 51°16.084 2°54.268 352 11.3 342 9.9
2004-03-24 07:55:28 51°16.096 2°54.263 353.4 11.1 343 9.9
2004-03-24 07:55:34 51°16.114 2°54.254 354.2 11.1 343 10
2004-03-24 07:55:38 51°16.125 2°54.25 355.4 10.7 345 10
2004-03-24 07:55:44 51°16.142 2°54.244 356.7 10.1 348 10.2
2004-03-24 07:55:49 51°16.155 2°54.24 358.6 10.1 348 10
2004-03-24 07:55:54 51°16.167 2°54.238 1.4 9.1 352 10
2004-03-24 07:55:58 51°16.176 2°54.237 5 8.2 358 10.3
2004-03-24 07:56:04 51°16.188 2°54.24 12 7.1 9 10
2004-03-24 07:56:09 51°16.197 2°54.243 19.5 6.6 11 10.2
2004-03-24 07:56:14 51°16.204 2°54.247 25 6.6 11 10.2
2004-03-24 07:56:18 51°16.21 2°54.25 28.3 5.5 17 10.3
2004-03-24 07:56:24 51°16.218 2°54.255 30.5 5.2 21 10.4
2004-03-24 07:56:28 51°16.223 2°54.259 33.3 4.9 22 10.4
2004-03-24 07:56:34 51°16.23 2°54.264 36.1 4.5 27 10.4
2004-03-24 07:56:38 51°16.233 2°54.268 39.2 4.1 31 10.4
2004-03-24 07:56:44 51°16.239 2°54.274 42.2 3.8 36 10.4
2004-03-24 07:56:49 51°16.243 2°54.279 44.9 3.6 36 10.4
2004-03-24 07:56:54 51°16.246 2°54.284 47.4 3.4 43 10.5
2004-03-24 07:56:59 51°16.249 2°54.289 49.1 3.2 40 10.4
2004-03-24 07:57:04 51°16.251 2°54.292 51.4 2.7 45 10.3
2004-03-24 07:57:09 51°16.253 2°54.296 53.6 2 55 10.3
2004-03-24 07:57:14 51°16.254 2°54.298 55.9 1.5 47 10.4
2004-03-24 07:57:19 51°16.255 2°54.3 57.7 1.1 61 10.5
2004-03-24 07:57:24 51°16.255 2°54.301 59.5 0.7 57 10.4
2004-03-24 07:57:29 51°16.254 2°54.301 62.4 0.3 178 10.4
2004-03-24 07:57:34 51°16.253 2°54.299 64.5 0.7 229 10.3
2004-03-24 07:57:38 51°16.252 2°54.297 66.8 0.7 229 10.3
2004-03-24 07:57:44 51°16.251 2°54.294 69 1.6 235 10.5
2004-03-24 07:57:49 51°16.249 2°54.291 72.7 1.6 230 10.3
2004-03-24 07:57:54 51°16.248 2°54.288 75.8 1.5 237 10.3
2004-03-24 07:57:59 51°16.247 2°54.286 79 1.6 230 10.4
2004-03-24 07:58:04 51°16.245 2°54.283 82 1.5 231 8.4
2004-03-24 07:58:09 51°16.244 2°54.281 84.7 1.5 232 7.2
2004-03-24 07:58:14 51°16.243 2°54.278 87.3 1.5 230 -999
2004-03-24 07:58:20 51°16.241 2°54.275 89.8 1.4 237 -999
2004-03-24 07:58:25 51°16.24 2°54.272 91.6 1.4 236 -999
2004-03-24 07:58:30 51°16.239 2°54.27 93.8 1.5 226 -999
2004-03-24 07:58:34 51°16.238 2°54.268 95.3 1.4 229 -999
2004-03-24 07:58:40 51°16.236 2°54.266 95.9 1.3 226 -999
2004-03-24 07:58:44 51°16.235 2°54.264 96.8 1.2 224 10.4
2004-03-24 07:58:49 51°16.234 2°54.263 97.2 1.2 219 10.4
2004-03-24 07:58:54 51°16.232 2°54.261 97.2 1.2 219 10.3
2004-03-24 07:58:58 51°16.232 2°54.26 97.2 1.1 216 10.4
2004-03-24 07:59:04 51°16.23 2°54.259 97.3 0.9 214 10.4
2004-03-24 07:59:09 51°16.228 2°54.258 96.9 1.2 204 -999
2004-03-24 07:59:14 51°16.227 2°54.257 96.6 0.9 207 10.2
2004-03-24 07:59:18 51°16.226 2°54.256 97.1 1.2 198 10.4
2004-03-24 07:59:24 51°16.224 2°54.255 96.5 1.3 193 10.3
2004-03-24 07:59:29 51°16.223 2°54.255 96.9 0.7 198 10.3
2004-03-24 07:59:34 51°16.221 2°54.255 96.5 1.3 191 10.3
2004-03-24 07:59:40 51°16.22 2°54.254 96 0.9 194 10.2
2004-03-24 07:59:44 51°16.219 2°54.254 96.1 0.8 190 10.2
2004-03-24 07:59:49 51°16.217 2°54.254 95.6 1.1 186 10.4
2004-03-24 07:59:54 51°16.216 2°54.253 94.6 0.7 191 10.3
2004-03-24 07:59:59 51°16.215 2°54.253 94.4 1.3 184 10.4
2004-03-24 08:00:04 51°16.213 2°54.253 93.1 0.6 187 10.3
2004-03-24 08:00:09 51°16.212 2°54.253 93 0.7 186 10.4
2004-03-24 08:00:14 51°16.211 2°54.253 91.6 1 183 10.4
2004-03-24 08:00:19 51°16.21 2°54.252 90.3 0.8 184 10.3
2004-03-24 08:00:24 51°16.208 2°54.252 89.2 1.1 180 10.3
2004-03-24 08:00:29 51°16.208 2°54.252 88.3 0.6 183 10.3
2004-03-24 08:00:34 51°16.206 2°54.252 86.9 1 180 10.4
2004-03-24 08:00:38 51°16.205 2°54.252 85.8 0.7 181 10.3
2004-03-24 08:00:44 51°16.204 2°54.252 85 0.8 180 10.3
2004-03-24 08:00:49 51°16.203 2°54.252 84 0.8 182 10.3
2004-03-24 08:00:54 51°16.202 2°54.252 82.7 0.8 182 10.3
2004-03-24 08:00:58 51°16.201 2°54.252 81.3 0.6 175 10.3
2004-03-24 08:01:04 51°16.2 2°54.253 80 0.6 172 10.4
2004-03-24 08:01:08 51°16.199 2°54.253 78.6 0.7 169 10.3
2004-03-24 08:01:14 51°16.198 2°54.253 77.2 0.7 168 10.2
2004-03-24 08:01:18 51°16.197 2°54.254 75.9 0.9 168 10.3
2004-03-24 08:01:24 51°16.197 2°54.254 74.6 0.4 167 10.3
2004-03-24 08:01:28 51°16.196 2°54.254 73 0.6 165 10.3
2004-03-24 08:01:34 51°16.195 2°54.254 71.7 0.5 163 10.3
2004-03-24 08:01:38 51°16.194 2°54.255 70.4 0.9 160 10.3
2004-03-24 08:01:44 51°16.194 2°54.255 69 0.3 173 10.2
2004-03-24 08:01:49 51°16.193 2°54.255 67.8 0.7 157 10.3
2004-03-24 08:01:54 51°16.192 2°54.255 66.3 0.2 177 10.3
2004-03-24 08:01:58 51°16.192 2°54.256 65 0.4 164 10.3
2004-03-24 08:02:04 51°16.192 2°54.256 63.3 0.4 157 10.3
2004-03-24 08:02:09 51°16.191 2°54.256 62.4 0.3 160 10.3
2004-03-24 08:02:14 51°16.191 2°54.256 60.9 0.2 156 10.3
2004-03-24 08:02:18 51°16.19 2°54.257 59.2 0.4 155 10.3
2004-03-24 08:02:24 51°16.19 2°54.257 58 0.2 149 10.3
2004-03-24 08:02:29 51°16.19 2°54.257 56.5 0.3 152 10.3
2004-03-24 08:02:34 51°16.19 2°54.257 54.7   253 10.2
2004-03-24 08:02:38 51°16.189 2°54.258 53.7 0.2 154 10.3
2004-03-24 08:02:44 51°16.189 2°54.257 51.9 0.2 276 10.3
2004-03-24 08:02:49 51°16.189 2°54.257 50.6   197 10.3
2004-03-24 08:02:54 51°16.189 2°54.258 49.3 0.1 318 10.2
2004-03-24 08:02:58 51°16.19 2°54.257 47.2 0.2 313 10.2
2004-03-24 08:03:04 51°16.189 2°54.258 46.3 0.2 327 10.2
2004-03-24 08:03:09 51°16.19 2°54.258 45.7 0.2 19 10.3
2004-03-24 08:03:14 51°16.19 2°54.258 45.5 0.1 330 10.2
2004-03-24 08:03:18 51°16.19 2°54.258 45.1 0.1 33 10.2
2004-03-24 08:03:24 51°16.19 2°54.258 45.2 0.1 7 10.2
2004-03-24 08:03:29 51°16.19 2°54.258 44.8 0.1 37 10.3
2004-03-24 08:03:34 51°16.191 2°54.258 44.4 0.2 347 10.3
2004-03-24 08:03:40 51°16.191 2°54.258 44.2 0.2 6 10.3
2004-03-24 08:03:44 51°16.191 2°54.258 43.8 0.2 358 10.3
2004-03-24 08:03:49 51°16.191 2°54.258 43.4 0.2 351 10.2
2004-03-24 08:03:54 51°16.192 2°54.258 43.1 0.2 351 10.4
2004-03-24 08:03:59 51°16.192 2°54.258 42.8 0.2 10 10.4
2004-03-24 08:04:04 51°16.192 2°54.258 42.5 0.2 12 10.4
2004-03-24 08:04:08 51°16.193 2°54.258 42.2 0.3 358 10.3
2004-03-24 08:04:14 51°16.193 2°54.258 42 0.2 355 10.3
2004-03-24 08:04:18 51°16.193 2°54.258 41.5 0.3 353 10.3
2004-03-24 08:04:24 51°16.194 2°54.258 41.7 0.3 9 10.3
2004-03-24 08:04:29 51°16.194 2°54.258 41.4 0.3 17 10.2
2004-03-24 08:04:34 51°16.195 2°54.258 41.4 0.3 354 10.2
2004-03-24 08:04:38 51°16.195 2°54.258 41.3 0.3 342 10.1
2004-03-24 08:04:44 51°16.195 2°54.258 41.3 0.2 39 10.1
2004-03-24 08:04:48 51°16.196 2°54.258 41.5 0.3 345 10.2
2004-03-24 08:04:54 51°16.196 2°54.258 41.3 0.3 33 10.2
2004-03-24 08:04:58 51°16.196 2°54.258 41.3 0.2 357 10.1
2004-03-24 08:05:04 51°16.197 2°54.258 41.3 0.2 14 10.1
2004-03-24 08:05:09 51°16.197 2°54.258 41.3 0.1 8 10.2
2004-03-24 08:05:14 51°16.197 2°54.258 41.5 0.2 346 10.2
2004-03-24 08:05:18 51°16.197 2°54.258 42 0.1 40 10.2
2004-03-24 08:05:24 51°16.197 2°54.258 42.4 0.1 69 10.3
2004-03-24 08:05:29 51°16.197 2°54.258 42.4 0.1 325 10.3
2004-03-24 08:05:34 51°16.197 2°54.258 42.9   300 10.2
2004-03-24 08:05:38 51°16.197 2°54.258 43.1 0.1 299 10.2
2004-03-24 08:05:44 51°16.197 2°54.258 43.5 0.3 125 10.3
2004-03-24 08:05:48 51°16.197 2°54.258 43.7 0.4 352 10.2
2004-03-24 08:05:54 51°16.199 2°54.259 43.7 0.7 48 10.3
2004-03-24 08:05:58 51°16.2 2°54.261 42.9 1.3 30 10.3
2004-03-24 08:06:04 51°16.202 2°54.263 41.7 1.9 29 10.3
2004-03-24 08:06:08 51°16.205 2°54.264 39.2 2.2 24 10.2
2004-03-24 08:06:14 51°16.209 2°54.267 36.2 2.5 21 10.2
2004-03-24 08:06:19 51°16.213 2°54.269 32.4 2.8 16 10.3
2004-03-24 08:06:24 51°16.218 2°54.27 28.3 3.8 8 10.3
2004-03-24 08:06:28 51°16.223 2°54.27 23.4 4.4 5 10.2
2004-03-24 08:06:34 51°16.232 2°54.269 16.5 5 358 10.2
2004-03-24 08:06:39 51°16.239 2°54.267 11.1 5.5 353 10.3
2004-03-24 08:06:44 51°16.248 2°54.262 4 6.2 344 10.2
2004-03-24 08:06:49 51°16.257 2°54.255 356.7 7 336 10.2
2004-03-24 08:06:54 51°16.266 2°54.247 350.5 7.4 332 10.3
2004-03-24 08:06:58 51°16.274 2°54.239 344.7 8 325 10.3
2004-03-24 08:07:04 51°16.284 2°54.224 338.9 8.6 318 10.3
2004-03-24 08:07:08 51°16.291 2°54.213 332.7 8.9 315 10.3
2004-03-24 08:07:14 51°16.302 2°54.193 327 9.4 311 10.2
2004-03-24 08:07:18 51°16.308 2°54.179 322.9 9.9 309 10.2
2004-03-24 08:07:24 51°16.319 2°54.156 320.4 11.1 306 10.4
2004-03-24 08:07:29 51°16.329 2°54.135 318.5 11.5 306 10.2
2004-03-24 08:07:34 51°16.339 2°54.114 318 11.9 307 10.1
2004-03-24 08:07:38 51°16.347 2°54.096 318.5 12.4 308 10.2
2004-03-24 08:07:44 51°16.361 2°54.07 318.8 12.8 309 10.2
2004-03-24 08:07:48 51°16.37 2°54.052 319.4 13 308 10.1
2004-03-24 08:07:54 51°16.384 2°54.024 319.9 13.1 309 10.2
2004-03-24 08:07:58 51°16.393 2°54.006 320.4 13.3 309 10.2
2004-03-24 08:08:04 51°16.407 2°53.979 320.3 13.5 309 10.3
2004-03-24 08:08:09 51°16.419 2°53.955 320.4 13.5 309 10.2
2004-03-24 08:08:14 51°16.431 2°53.931 320.3 13.6 309 10.3
2004-03-24 08:08:18 51°16.441 2°53.913 320.3 13.7 309 10.2
2004-03-24 08:08:24 51°16.455 2°53.884 320.4 13.8 309 10.4
2004-03-24 08:08:28 51°16.465 2°53.865 320.7 13.9 310 10.5
2004-03-24 08:08:34 51°16.479 2°53.836 320.8 13.9 310 10.3
2004-03-24 08:08:38 51°16.489 2°53.817 320.7 13.9 309 10.3
2004-03-24 08:08:44 51°16.503 2°53.788 320.4 13.9 309 10.3
2004-03-24 08:08:49 51°16.516 2°53.764 320.2 13.9 308 10.4
2004-03-24 08:08:54 51°16.528 2°53.74 320 14 308 10.5
2004-03-24 08:09:00 51°16.541 2°53.709 318.8 13.9 307 10.4
2004-03-24 08:09:04 51°16.549 2°53.689 316.1 14 304 10.4
2004-03-24 08:09:09 51°16.56 2°53.662 314.1 14.1 302 10.5
2004-03-24 08:09:14 51°16.57 2°53.635 312.5 14.1 302 10.5
2004-03-24 08:09:18 51°16.577 2°53.613 311.5 14.2 300 10.4
2004-03-24 08:09:24 51°16.588 2°53.58 309.3 14 296 10.3
2004-03-24 08:09:29 51°16.596 2°53.551 306.1 14.2 294 10.3
2004-03-24 08:09:34 51°16.603 2°53.523 304.1 14.2 293 10.3
2004-03-24 08:09:38 51°16.609 2°53.499 302.1 14.2 291 10.3
2004-03-24 08:09:44 51°16.617 2°53.464 300.4 14.2 291 10.3
2004-03-24 08:09:49 51°16.624 2°53.434 299.5 14.2 290 10.3
2004-03-24 08:09:54 51°16.63 2°53.405 299.4 14.2 290 10.2
2004-03-24 08:09:58 51°16.635 2°53.381 298.9 14.2 289 10.2
2004-03-24 08:10:04 51°16.644 2°53.345 298.7 14.2 290 10.3
2004-03-24 08:10:08 51°16.649 2°53.321 298.7 14.3 290 10.3
2004-03-24 08:10:14 51°16.657 2°53.286 299.3 14.2 290 10.1
2004-03-24 08:10:18 51°16.663 2°53.263 300.4 14.1 292 10
2004-03-24 08:10:24 51°16.672 2°53.228 301.2 14.2 293 10.1
2004-03-24 08:10:28 51°16.679 2°53.206 302.6 14.1 293 9.9
2004-03-24 08:10:34 51°16.688 2°53.171 302.5 14.1 293 9.8
2004-03-24 08:10:38 51°16.694 2°53.149 302.9 14.1 294 10
2004-03-24 08:10:44 51°16.704 2°53.114 303.3 14 294 9.9
2004-03-24 08:10:48 51°16.71 2°53.092 303.4 14 294 9.6
2004-03-24 08:10:54 51°16.72 2°53.058 303.3 14.1 294 9.7
2004-03-24 08:10:59 51°16.728 2°53.03 303.7 14.1 294 9.4
2004-03-24 08:11:04 51°16.736 2°53.001 303.4 13.9 294 9.6
2004-03-24 08:11:09 51°16.744 2°52.973 303.6 13.9 295 9.4
2004-03-24 08:11:14 51°16.752 2°52.945 303.7 13.9 294 9.2
2004-03-24 08:11:18 51°16.758 2°52.923 303.4 13.9 295 9
2004-03-24 08:11:24 51°16.768 2°52.89 303.6 13.8 294 8.7
2004-03-24 08:11:29 51°16.776 2°52.862 303.2 13.7 295 8.5
2004-03-24 08:11:34 51°16.784 2°52.835 303.6 13.6 295 8
2004-03-24 08:11:38 51°16.791 2°52.814 304.2 13.5 296 7.7
2004-03-24 08:11:44 51°16.8 2°52.782 304.5 13.3 296 7.7
2004-03-24 08:11:48 51°16.807 2°52.761 304.8 13.3 296 8
2004-03-24 08:11:54 51°16.818 2°52.73 305.7 13.2 298 8.1
2004-03-24 08:11:58 51°16.825 2°52.709 306.7 13.3 298 8
2004-03-24 08:12:04 51°16.837 2°52.679 308.5 13.4 301 7.9
2004-03-24 08:12:08 51°16.845 2°52.659 310.6 13.5 302 7.9
2004-03-24 08:12:14 51°16.859 2°52.632 313.8 13.3 307 7.7
2004-03-24 08:12:20 51°16.873 2°52.605 317 13.1 311 7.8
2004-03-24 08:12:24 51°16.884 2°52.589 320 13.1 314 8.1
2004-03-24 08:12:28 51°16.894 2°52.573 322.8 13.1 317 8.1
2004-03-24 08:12:34 51°16.911 2°52.551 327.1 13.2 319 8.3
2004-03-24 08:12:38 51°16.923 2°52.536 328.8 13.3 321 8.5
2004-03-24 08:12:44 51°16.94 2°52.514 330.6 13.4 322 8.5
2004-03-24 08:12:49 51°16.955 2°52.496 331.8 13.3 323 8
2004-03-24 08:12:54 51°16.969 2°52.479 332.1 13.3 323 7.9
2004-03-24 08:12:58 51°16.981 2°52.465 333 13.1 325 7.7
2004-03-24 08:13:04 51°16.999 2°52.445 334.4 13 326 7.8
2004-03-24 08:13:09 51°17.014 2°52.43 335.3 13 326 7.9
2004-03-24 08:13:14 51°17.03 2°52.414 336.1 13.1 327 8.3
2004-03-24 08:13:18 51°17.042 2°52.401 336.7 13.1 327 8
2004-03-24 08:13:24 51°17.06 2°52.381 336.1 13.2 326 8.2
2004-03-24 08:13:29 51°17.074 2°52.364 335 13.3 324 8.1
2004-03-24 08:13:34 51°17.089 2°52.346 333.7 13.3 324 8.2
2004-03-24 08:13:38 51°17.101 2°52.331 332.2 13.4 322 8.3
2004-03-24 08:13:44 51°17.118 2°52.309 331.1 13.4 322 8.3
2004-03-24 08:13:49 51°17.133 2°52.292 332.3 13.4 324 8.5
2004-03-24 08:13:54 51°17.149 2°52.275 333.7 13.4 325 8.6
2004-03-24 08:13:58 51°17.162 2°52.263 335.8 13.4 329 8.4
2004-03-24 08:14:04 51°17.181 2°52.245 337.8 13.4 330 8.6
2004-03-24 08:14:09 51°17.197 2°52.232 339.7 13.4 332 8.7
2004-03-24 08:14:14 51°17.214 2°52.218 341.6 13.3 332 8.7
2004-03-24 08:14:19 51°17.23 2°52.206 342.7 13.3 334 8.8
2004-03-24 08:14:24 51°17.247 2°52.193 343.7 13.3 335 8.9
2004-03-24 08:14:29 51°17.264 2°52.181 344.2 13.3 335 8.9
2004-03-24 08:14:34 51°17.28 2°52.168 344.6 13.3 334 8.9
2004-03-24 08:14:38 51°17.294 2°52.158 344.4 13.3 335 8.7
2004-03-24 08:14:44 51°17.314 2°52.142 344.2 13.4 334 8.8
2004-03-24 08:14:49 51°17.33 2°52.128 343.7 13.4 333 8.9
2004-03-24 08:14:54 51°17.347 2°52.115 343.2 13.4 333 8.7
2004-03-24 08:14:58 51°17.36 2°52.104 342.7 13.3 331 8.9
2004-03-24 08:15:04 51°17.379 2°52.086 341.4 13.4 329 8.8
2004-03-24 08:15:08 51°17.391 2°52.073 339.5 13.3 328 8.8
2004-03-24 08:15:14 51°17.41 2°52.053 337.6 13.3 326 8.8
2004-03-24 08:15:19 51°17.425 2°52.036 336 13.4 325 9
2004-03-24 08:15:24 51°17.44 2°52.018 334.8 13.4 324 8.9
2004-03-24 08:15:28 51°17.452 2°52.004 334.1 13.5 323 8.8
2004-03-24 08:15:34 51°17.47 2°51.982 333.1 13.5 323 8.8
2004-03-24 08:15:40 51°17.488 2°51.961 332.8 13.4 322 8.9
2004-03-24 08:15:44 51°17.499 2°51.946 332.8 13.5 322 7.9
2004-03-24 08:15:48 51°17.511 2°51.93 331.7 13.5 320 8.9
2004-03-24 08:15:54 51°17.528 2°51.907 330.6 13.5 320 8.8
2004-03-24 08:15:58 51°17.539 2°51.892 330.1 13.4 319 8.6
2004-03-24 08:16:04 51°17.556 2°51.868 329.4 13.5 319 8.6
2004-03-24 08:16:08 51°17.567 2°51.852 328.9 13.5 319 8.7
2004-03-24 08:16:14 51°17.584 2°51.828 328.7 13.5 319 8.7
2004-03-24 08:16:18 51°17.596 2°51.813 329 13.5 319 8.6
2004-03-24 08:16:24 51°17.613 2°51.79 329.4 13.4 320 8.4
2004-03-24 08:16:29 51°17.627 2°51.771 329.5 13.4 320 8.4
2004-03-24 08:16:34 51°17.641 2°51.752 329.8 13.4 320 8.3
2004-03-24 08:16:39 51°17.656 2°51.732 330.2 13.4 320 8.4
2004-03-24 08:16:44 51°17.67 2°51.713 330 13.4 319 8.5
2004-03-24 08:16:48 51°17.681 2°51.697 329.5 13.4 319 8.4
2004-03-24 08:16:54 51°17.698 2°51.674 329.2 13.5 319 8.3
2004-03-24 08:16:58 51°17.709 2°51.658 329.1 13.4 319 8.3
2004-03-24 08:17:04 51°17.726 2°51.634 328.9 13.4 319 8.3
2004-03-24 08:17:09 51°17.74 2°51.615 328.7 13.4 319 8.3
2004-03-24 08:17:14 51°17.754 2°51.595 328.9 13.4 318 8.3
2004-03-24 08:17:18 51°17.765 2°51.579 328.8 13.4 319 8.5
2004-03-24 08:17:24 51°17.782 2°51.556 328.8 13.5 319 8.3
2004-03-24 08:17:28 51°17.793 2°51.54 328.9 13.5 319 8.5
2004-03-24 08:17:34 51°17.811 2°51.517 329.3 13.6 320 8.4
2004-03-24 08:17:38 51°17.822 2°51.501 329.5 13.4 319 8.3
2004-03-24 08:17:44 51°17.839 2°51.478 329.6 13.4 320 8.6
2004-03-24 08:17:49 51°17.853 2°51.458 329.7 13.6 319 8.7
2004-03-24 08:17:54 51°17.868 2°51.438 329.7 13.7 320 8.6
2004-03-24 08:17:58 51°17.879 2°51.423 329.2 13.7 319 8.8
2004-03-24 08:18:04 51°17.896 2°51.399 329.2 13.3 318 8.8
2004-03-24 08:18:09 51°17.909 2°51.379 328.8 13.1 318 9
2004-03-24 08:18:14 51°17.922 2°51.36 328.4 13 318 9.1
2004-03-24 08:18:18 51°17.933 2°51.344 328 13 317 9.2
2004-03-24 08:18:24 51°17.949 2°51.321 328 12.9 318 9.3
2004-03-24 08:18:29 51°17.961 2°51.303 328.1 12.5 318 9.4
2004-03-24 08:18:34 51°17.974 2°51.285 328.6 12.2 318 9.7
2004-03-24 08:18:38 51°17.984 2°51.271 329.1 11.9 319 9.8
2004-03-24 08:18:44 51°17.998 2°51.251 329.8 11.6 319 9.6
2004-03-24 08:18:49 51°18.01 2°51.234 330.1 11.3 319 9.9
2004-03-24 08:18:54 51°18.021 2°51.218 330.3 11.2 319 10.2
2004-03-24 08:18:59 51°18.033 2°51.203 330.3 10.9 319 10.2
2004-03-24 08:19:04 51°18.044 2°51.187 330.5 10.7 319 10.1
2004-03-24 08:19:09 51°18.055 2°51.172 330.7 10.6 319 10.5
2004-03-24 08:19:14 51°18.066 2°51.157 330.4 10.5 318 10.5
2004-03-24 08:19:19 51°18.076 2°51.142 330.4 10.3 319 10.6
2004-03-24 08:19:24 51°18.087 2°51.127 330.4 10.3 318 10.8
2004-03-24 08:19:28 51°18.095 2°51.115 330.2 10.2 318 10.9
2004-03-24 08:19:34 51°18.108 2°51.097 329.9 10 318 10.9
2004-03-24 08:19:38 51°18.116 2°51.085 329.7 10 317 10.9
2004-03-24 08:19:44 51°18.128 2°51.067 329.5 10 317 11
2004-03-24 08:19:49 51°18.138 2°51.051 329.4 10 317 11.2
2004-03-24 08:19:54 51°18.148 2°51.037 329.5 10 317 11.1
2004-03-24 08:19:59 51°18.158 2°51.022 329.6 9.8 317 11.2
2004-03-24 08:20:04 51°18.168 2°51.006 329.5 10 317 11.4
2004-03-24 08:20:09 51°18.179 2°50.991 329.5 10.3 318 11.3
2004-03-24 08:20:14 51°18.19 2°50.976 330.1 10.5 318 11.4
2004-03-24 08:20:19 51°18.201 2°50.96 330.9 10.5 318 11.4
2004-03-24 08:20:24 51°18.213 2°50.945 332 11 321 11.6
2004-03-24 08:20:28 51°18.223 2°50.933 332.6 11.2 323 11.6
2004-03-24 08:20:34 51°18.239 2°50.917 334.5 11.2 326 11.7
2004-03-24 08:20:39 51°18.252 2°50.905 338.7 11.2 329 11.6
2004-03-24 08:20:44 51°18.267 2°50.894 343.3 11.3 333 11.8
2004-03-24 08:20:48 51°18.278 2°50.885 344.4 11.3 333 11.8
2004-03-24 08:20:54 51°18.295 2°50.872 344.2 11.5 334 11.9
2004-03-24 08:20:58 51°18.307 2°50.865 346.8 11.5 338 12
2004-03-24 08:21:04 51°18.325 2°50.859 352.2 11.2 348 12
2004-03-24 08:21:09 51°18.34 2°50.857 358.3 10.9 353 12
2004-03-24 08:21:14 51°18.354 2°50.858 4.7 10.5 359 12
2004-03-24 08:21:18 51°18.365 2°50.86 10.8 10.1 3 12.1
2004-03-24 08:21:24 51°18.38 2°50.863 16 8.8 8 12.3
2004-03-24 08:21:29 51°18.391 2°50.867 18.7 8.3 10 12.1
2004-03-24 08:21:34 51°18.401 2°50.871 22.1 7.8 13 12.3
2004-03-24 08:21:38 51°18.409 2°50.874 24.7 7.3 16 12.4
2004-03-24 08:21:44 51°18.419 2°50.88 26.6 6.6 20 12.5
2004-03-24 08:21:48 51°18.425 2°50.884 29.3 6.2 24 12.5
2004-03-24 08:21:54 51°18.434 2°50.892 33.9 5.8 28 12.4
2004-03-24 08:21:58 51°18.438 2°50.898 39.3 5.2 35 12.4
2004-03-24 08:22:04 51°18.444 2°50.906 44.2 4.6 42 12.3
2004-03-24 08:22:09 51°18.448 2°50.912 48.6 4.4 43 12.3
2004-03-24 08:22:14 51°18.452 2°50.919 51.6 4.2 48 12.4
2004-03-24 08:22:18 51°18.455 2°50.924 53.9 3.9 47 12.4
2004-03-24 08:22:24 51°18.459 2°50.932 55.2 3.7 52 12.4
2004-03-24 08:22:28 51°18.461 2°50.937 56.1 3.6 51 12.5
2004-03-24 08:22:34 51°18.465 2°50.944 55.9 3.5 52 12.4
2004-03-24 08:22:38 51°18.467 2°50.949 55.4 3.3 50 12.4
2004-03-24 08:22:44 51°18.47 2°50.955 54.6 3.1 53 12.4
2004-03-24 08:22:49 51°18.472 2°50.96 53.9 2.9 50 12.4
2004-03-24 08:22:54 51°18.475 2°50.965 53.1 2.9 50 12.4
2004-03-24 08:22:58 51°18.477 2°50.969 52.7 2.7 52 12.4
2004-03-24 08:23:04 51°18.479 2°50.974 51.8 2.4 54 12.4
2004-03-24 08:23:09 51°18.481 2°50.978 51.4 2.3 51 12.4
2004-03-24 08:23:14 51°18.483 2°50.982 51 2.3 54 12.4
2004-03-24 08:23:18 51°18.485 2°50.984 51.3 2.2 48 12.3
2004-03-24 08:23:24 51°18.487 2°50.989 51.1 1.9 48 12.5
2004-03-24 08:23:28 51°18.488 2°50.991 51.3 1.9 45 12.5
2004-03-24 08:23:34 51°18.49 2°50.995 50.8 1.7 48 12.5
2004-03-24 08:23:38 51°18.491 2°50.997 50.8 1.7 55 12.6
2004-03-24 08:23:44 51°18.493 2°51.001 50.5 1.5 50 12.6
2004-03-24 08:23:49 51°18.494 2°51.003 50.2 1.4 53 12.5
2004-03-24 08:23:54 51°18.495 2°51.005 50.3 1.3 50 12.5
2004-03-24 08:23:58 51°18.496 2°51.007 50.3 1.3 59 12.5
2004-03-24 08:24:04 51°18.497 2°51.009 50 1.1 49 12.5
2004-03-24 08:24:08 51°18.498 2°51.011 49.3 1 54 12.6
2004-03-24 08:24:14 51°18.498 2°51.012 49.4 0.8 57 12.6
2004-03-24 08:24:18 51°18.498 2°51.013 49.3 0.6 71 12.5
2004-03-24 08:24:24 51°18.499 2°51.014 49.2 0.4 55 12.4
2004-03-24 08:24:28 51°18.498 2°51.015 50 0.5 92 12.6
2004-03-24 08:24:34 51°18.499 2°51.015 50.5 0.3 84 12.6
2004-03-24 08:24:38 51°18.499 2°51.015 51.3 0.4 114 12.5
2004-03-24 08:24:44 51°18.499 2°51.016 51.5 0.3 82 12.4
2004-03-24 08:24:48 51°18.498 2°51.017 51.6 0.5 123 12.5
2004-03-24 08:24:54 51°18.498 2°51.017 52 0.2 121 12.3
2004-03-24 08:24:58 51°18.498 2°51.018 51.9 0.3 138 12.4
2004-03-24 08:25:04 51°18.498 2°51.018 52 0.2 133 12.4
2004-03-24 08:25:08 51°18.497 2°51.018 51.9 0.2 143 12.5
2004-03-24 08:25:14 51°18.497 2°51.019 51.4 0.2 184 12.5
2004-03-24 08:25:18 51°18.497 2°51.019 51.2 0.4 144 12.6
2004-03-24 08:25:24 51°18.496 2°51.02 51.2 0.4 147 12.6
2004-03-24 08:25:29 51°18.496 2°51.019 50.3 0.1 227 12.4
2004-03-24 08:25:34 51°18.496 2°51.02 49.7 0.4 140 12.5
2004-03-24 08:25:40 51°18.495 2°51.02 49.4 0.2 214 12.6
2004-03-24 08:25:44 51°18.495 2°51.02 48.3 0.2 161 12.5
2004-03-24 08:25:49 51°18.495 2°51.02 47.7 0.2 191 12.5
2004-03-24 08:25:54 51°18.495 2°51.02 46.9 0.2 167 12.5
2004-03-24 08:25:59 51°18.494 2°51.02 46.6 0.2 186 12.4
2004-03-24 08:26:04 51°18.494 2°51.02 45.8 0.2 217 12.4
2004-03-24 08:26:09 51°18.494 2°51.02 45 0.2 189 12.4
2004-03-24 08:26:14 51°18.494 2°51.019 44.2 0.2 174 12.5
2004-03-24 08:26:20 51°18.493 2°51.019 43.8 0.2 228 12.4
2004-03-24 08:26:24 51°18.493 2°51.019 43.2 0.2 228 12.4
2004-03-24 08:26:29 51°18.493 2°51.019 42.4 0.3 181 12.3
2004-03-24 08:26:34 51°18.492 2°51.018 42.1 0.2 224 12.4
2004-03-24 08:26:38 51°18.492 2°51.018 41.9 0.2 188 12.5
2004-03-24 08:26:44 51°18.492 2°51.018 41.6 0.2 207 12.5
2004-03-24 08:26:48 51°18.492 2°51.018 41.3 0.3 201 12.5
2004-03-24 08:26:54 51°18.491 2°51.017 40.9 0.3 216 12.5
2004-03-24 08:26:58 51°18.491 2°51.017 41.1 0.3 205 12.4
2004-03-24 08:27:04 51°18.49 2°51.017 41.3 0.3 206 12.5
2004-03-24 08:27:09 51°18.49 2°51.017 41.6 0.3 214 12.5
2004-03-24 08:27:14 51°18.49 2°51.016 41.7 0.4 198 12.5
2004-03-24 08:27:19 51°18.489 2°51.016 42.1 0.3 223 12.5
2004-03-24 08:27:24 51°18.489 2°51.015 42.6 0.3 213 12.4
2004-03-24 08:27:29 51°18.488 2°51.015 42.9 0.3 205 12.4
2004-03-24 08:27:34 51°18.488 2°51.015 43.3 0.3 202 12.5
2004-03-24 08:27:39 51°18.488 2°51.015 43.3 0.3 200 12.4
2004-03-24 08:27:44 51°18.487 2°51.015 43.8 0.3 190 12.5
2004-03-24 08:27:49 51°18.487 2°51.014 43.7 0.3 212 12.5
2004-03-24 08:27:54 51°18.486 2°51.014 43.6 0.4 184 12.5
2004-03-24 08:28:00 51°18.486 2°51.014 44.2 0.4 208 12.3
2004-03-24 08:28:04 51°18.485 2°51.013 44.3 0.4 201 12.4
2004-03-24 08:28:09 51°18.485 2°51.013 44.6 0.3 194 12.4
2004-03-24 08:28:14 51°18.484 2°51.013 44.8 0.5 186 12.5
2004-03-24 08:28:18 51°18.484 2°51.013 45 0.4 220 12.3
2004-03-24 08:28:24 51°18.483 2°51.012 44.9 0.4 212 12.2
2004-03-24 08:28:29 51°18.482 2°51.012 45.3 0.5 196 12.3
2004-03-24 08:28:34 51°18.482 2°51.011 45.1 0.4 201 12.4
2004-03-24 08:28:39 51°18.481 2°51.011 45.1 0.4 206 12.4
2004-03-24 08:28:44 51°18.481 2°51.011 45.2 0.4 202 12.5
2004-03-24 08:28:48 51°18.481 2°51.01 44.9 0.4 208 12.4
2004-03-24 08:28:54 51°18.48 2°51.01 45.2 0.4 202 12.4
2004-03-24 08:28:58 51°18.48 2°51.01 45.4 0.4 207 12.4
2004-03-24 08:29:04 51°18.479 2°51.009 45.7 0.4 207 12.4
2004-03-24 08:29:09 51°18.478 2°51.009 45.7 0.4 199 12.5
2004-03-24 08:29:14 51°18.478 2°51.009 45.8 0.4 212 12.3
2004-03-24 08:29:18 51°18.477 2°51.009 46 0.4 189 12.3
2004-03-24 08:29:24 51°18.477 2°51.009 46.1 0.4 190 12.4
2004-03-24 08:29:28 51°18.476 2°51.008 46.3 0.5 183 12.3
2004-03-24 08:29:34 51°18.475 2°51.008 46.7 0.5 208 12.4
2004-03-24 08:29:39 51°18.475 2°51.008 46.8 0.5 188 12.5
2004-03-24 08:29:44 51°18.474 2°51.008 47.3 0.6 179 12.4
2004-03-24 08:29:49 51°18.474 2°51.007 47.4 0.4 224 12.3
2004-03-24 08:29:54 51°18.473 2°51.007 47.8 0.5 178 12.4
2004-03-24 08:29:58 51°18.473 2°51.007 48.1 0.4 189 12.4
2004-03-24 08:30:04 51°18.472 2°51.006 48 0.5 187 12.4
2004-03-24 08:30:08 51°18.471 2°51.006 48.4 0.5 175 12.4
2004-03-24 08:30:14 51°18.471 2°51.006 48.8 0.4 211 12.4
2004-03-24 08:30:18 51°18.47 2°51.006 48.6 0.5 198 12.5
2004-03-24 08:30:24 51°18.47 2°51.006 49.1 0.6 170 12.5
2004-03-24 08:30:29 51°18.469 2°51.005 49.1 0.5 219 12.4
2004-03-24 08:30:34 51°18.468 2°51.005 49.5 0.6 186 12.4
2004-03-24 08:30:38 51°18.468 2°51.004 50 0.5 209 12.4
2004-03-24 08:30:44 51°18.467 2°51.004 49.8 0.5 183 12.4
2004-03-24 08:30:48 51°18.467 2°51.004 49.8 0.4 200 12.4
2004-03-24 08:30:54 51°18.466 2°51.003 50 0.5 195 12.4
2004-03-24 08:30:59 51°18.465 2°51.003 50.4 0.5 189 12.5
2004-03-24 08:31:04 51°18.465 2°51.003 50.7 0.5 188 12.5
2004-03-24 08:31:08 51°18.464 2°51.003 50.6 0.5 189 12.4
2004-03-24 08:31:14 51°18.463 2°51.003 50.8 0.5 189 12.5
2004-03-24 08:31:19 51°18.462 2°51.003 50.1 0.5 197 12.3
2004-03-24 08:31:24 51°18.462 2°51.002 49.8 0.5 200 12.3
2004-03-24 08:31:28 51°18.461 2°51.002 49.5 0.5 199 12.3
2004-03-24 08:31:34 51°18.461 2°51.001 48.7 0.5 206 12.4
2004-03-24 08:31:39 51°18.46 2°51.001 47.6 0.5 206 12.3
2004-03-24 08:31:44 51°18.459 2°51 46.5 0.5 207 12.4
2004-03-24 08:31:49 51°18.459 2°51 45.5 0.5 204 12.4
2004-03-24 08:31:54 51°18.458 2°50.999 44.5 0.5 215 12.4
2004-03-24 08:31:58 51°18.458 2°50.999 43.5 0.5 193 12.4
2004-03-24 08:32:04 51°18.457 2°50.998 43 0.5 218 12.3
2004-03-24 08:32:09 51°18.456 2°50.997 42.3 0.6 219 12.4
2004-03-24 08:32:14 51°18.455 2°50.997 42 0.6 194 12.4
2004-03-24 08:32:18 51°18.455 2°50.996 41.4 0.6 232 12.3
2004-03-24 08:32:24 51°18.454 2°50.996 41.2 0.6 213 12.3
2004-03-24 08:32:28 51°18.453 2°50.994 40.8 0.6 229 12.2
2004-03-24 08:32:34 51°18.453 2°50.994 39.9 0.6 198 12.4
2004-03-24 08:32:39 51°18.452 2°50.993 39.4 0.6 212 12.4
2004-03-24 08:32:44 51°18.451 2°50.992 38.5 0.6 214 12.3
2004-03-24 08:32:49 51°18.451 2°50.991 37.5 0.6 222 12.4
2004-03-24 08:32:54 51°18.45 2°50.991 36.9 0.6 204 12.5
2004-03-24 08:32:58 51°18.449 2°50.99 36 0.6 215 12.3
2004-03-24 08:33:04 51°18.449 2°50.988 35.2 0.7 236 12.3
2004-03-24 08:33:08 51°18.448 2°50.988 35 0.6 211 12.3
2004-03-24 08:33:14 51°18.447 2°50.987 33.9 0.6 228 12.3
2004-03-24 08:33:18 51°18.447 2°50.986 32.9 0.6 218 12.3
2004-03-24 08:33:24 51°18.446 2°50.985 32.3 0.7 222 12.3
2004-03-24 08:33:29 51°18.445 2°50.984 31.3 0.7 225 12.3
2004-03-24 08:33:34 51°18.445 2°50.983 30.3 0.7 229 12.3
2004-03-24 08:33:39 51°18.444 2°50.982 29.3 0.7 214 12.2
2004-03-24 08:33:44 51°18.443 2°50.981 28.9 0.7 210 12.2
2004-03-24 08:33:50 51°18.442 2°50.979 28.4 0.8 230 12.2
2004-03-24 08:33:54 51°18.442 2°50.979 28.2 0.8 215 12.3
2004-03-24 08:33:58 51°18.441 2°50.977 27.9 0.8 227 12.4
2004-03-24 08:34:04 51°18.44 2°50.976 26.8 0.7 218 12.3
2004-03-24 08:34:08 51°18.439 2°50.975 26.2 0.8 224 12.3
2004-03-24 08:34:14 51°18.438 2°50.974 25.8 0.9 224 12.3
2004-03-24 08:34:18 51°18.438 2°50.973 24.8 0.9 224 12.4
2004-03-24 08:34:24 51°18.437 2°50.971 24.1 0.9 227 12.3
2004-03-24 08:34:29 51°18.436 2°50.97 23.5 0.9 224 12.3
2004-03-24 08:34:34 51°18.435 2°50.968 22.9 0.9 227 12.2
2004-03-24 08:34:39 51°18.434 2°50.967 22.5 0.9 227 12.3
2004-03-24 08:34:44 51°18.433 2°50.966 21.9 0.9 228 12.3
2004-03-24 08:34:49 51°18.433 2°50.964 21 0.9 230 12.3
2004-03-24 08:34:54 51°18.432 2°50.963 20.3 0.9 228 12.3
2004-03-24 08:34:58 51°18.431 2°50.961 19.7 0.9 225 12.3
2004-03-24 08:35:04 51°18.43 2°50.959 18.8 1 236 12.4
2004-03-24 08:35:09 51°18.429 2°50.958 18.2 0.8 221 12.5
2004-03-24 08:35:14 51°18.429 2°50.957 17.4 1 236 12.3
2004-03-24 08:35:18 51°18.428 2°50.955 16.4 0.8 224 12.2
2004-03-24 08:35:24 51°18.427 2°50.953 15.5 0.9 228 12.3
2004-03-24 08:35:29 51°18.426 2°50.952 14.5 1 234 12.3
2004-03-24 08:35:34 51°18.426 2°50.95 13 1 244 12.3
2004-03-24 08:35:38 51°18.426 2°50.948 12.6 1 263 12.4
2004-03-24 08:35:44 51°18.427 2°50.946 10.2 1.4 316 12.4
2004-03-24 08:35:49 51°18.43 2°50.943 4.3 2.1 327 12.3
2004-03-24 08:35:54 51°18.434 2°50.94 356.7 2.8 330 12.2
2004-03-24 08:36:00 51°18.44 2°50.936 354.1 3.5 331 12.2
2004-03-24 08:36:04 51°18.445 2°50.933 355.2 4.5 341 12.2
2004-03-24 08:36:08 51°18.45 2°50.931 359.3 4.9 344 12.2
2004-03-24 08:36:14 51°18.46 2°50.931 5.7 5.6 356 12.3
2004-03-24 08:36:18 51°18.467 2°50.933 13.5 6.2 8 12.3
2004-03-24 08:36:24 51°18.477 2°50.938 21.5 6.8 20 12.3
2004-03-24 08:36:28 51°18.484 2°50.944 27.9 7 27 12.4
2004-03-24 08:36:34 51°18.494 2°50.957 36 7.2 36 12.5
2004-03-24 08:36:38 51°18.5 2°50.967 44.5 7.6 42 12.2
2004-03-24 08:36:44 51°18.509 2°50.984 52.3 8.4 50 12.4
2004-03-24 08:36:49 51°18.517 2°50.999 53.4 8.7 49 12.3
2004-03-24 08:36:54 51°18.525 2°51.015 54.5 9 51 12.4
2004-03-24 08:36:58 51°18.531 2°51.028 56 9.5 54 12.4
2004-03-24 08:37:04 51°18.541 2°51.05 57.1 9.9 54 12.4
2004-03-24 08:37:09 51°18.549 2°51.068 57.9 10 55 12.5
2004-03-24 08:37:14 51°18.556 2°51.087 59.5 10.3 57 12.4
2004-03-24 08:37:18 51°18.562 2°51.103 61.2 10.4 59 12.4
2004-03-24 08:37:24 51°18.571 2°51.127 62.3 10.5 60 12.4
2004-03-24 08:37:28 51°18.576 2°51.145 63.2 10.9 62 12.3
2004-03-24 08:37:34 51°18.585 2°51.171 64.8 11.2 62 12.3
2004-03-24 08:37:40 51°18.593 2°51.199 65.9 11.4 64 12.4
2004-03-24 08:37:44 51°18.599 2°51.218 67.7 11.9 65 12.3
2004-03-24 08:37:49 51°18.606 2°51.242 68 12 65 12.4
2004-03-24 08:37:54 51°18.612 2°51.267 68.5 12 65 12.4
2004-03-24 08:37:58 51°18.618 2°51.287 69.3 12.2 66 12.4
2004-03-24 08:38:04 51°18.626 2°51.318 69.3 12.4 67 12.4
2004-03-24 08:38:09 51°18.632 2°51.343 69.8 12.4 67 12.3
2004-03-24 08:38:14 51°18.639 2°51.368 70.2 12.4 67 12.4
2004-03-24 08:38:20 51°18.647 2°51.399 70.3 12.5 67 12.3
2004-03-24 08:38:24 51°18.652 2°51.42 69.8 12.5 69 12.4
2004-03-24 08:38:29 51°18.659 2°51.445 70.1 12.5 66 12.4
2004-03-24 08:38:34 51°18.666 2°51.47 70 12.4 68 12.3
2004-03-24 08:38:38 51°18.671 2°51.491 69.9 12.5 67 12.2
2004-03-24 08:38:44 51°18.68 2°51.521 69.5 12.5 68 12.1
2004-03-24 08:38:49 51°18.686 2°51.547 70.1 12.6 67 12.1
2004-03-24 08:38:54 51°18.693 2°51.573 69.7 12.6 67 12.2
2004-03-24 08:38:59 51°18.7 2°51.598 69.6 12.6 66 12.1
2004-03-24 08:39:04 51°18.707 2°51.624 69.8 12.5 65 12
2004-03-24 08:39:09 51°18.714 2°51.649 69.5 12.6 68 12.2
2004-03-24 08:39:14 51°18.721 2°51.675 69.6 12.6 66 11.8
2004-03-24 08:39:18 51°18.726 2°51.695 69.8 12.6 67 11.9
2004-03-24 08:39:24 51°18.734 2°51.726 70.4 12.6 67 11.8
2004-03-24 08:39:29 51°18.741 2°51.752 70.4 12.5 68 11.9
2004-03-24 08:39:34 51°18.747 2°51.777 70.4 12.5 67 11.9
2004-03-24 08:39:39 51°18.755 2°51.803 69.8 12.6 67 11.9
2004-03-24 08:39:44 51°18.762 2°51.828 68.9 12.6 66 11.8
2004-03-24 08:39:49 51°18.769 2°51.853 68.9 12.5 67 12
2004-03-24 08:39:54 51°18.776 2°51.879 69 12.6 66 11.7
2004-03-24 08:39:58 51°18.782 2°51.899 68.9 12.6 65 11.6
2004-03-24 08:40:04 51°18.79 2°51.93 69.5 12.5 66 11.6
2004-03-24 08:40:09 51°18.797 2°51.955 69.5 12.5 66 11.8
2004-03-24 08:40:14 51°18.804 2°51.981 68.9 12.6 66 11.9
2004-03-24 08:40:18 51°18.809 2°52.001 68.8 12.5 66 11.8
2004-03-24 08:40:24 51°18.818 2°52.031 69.1 12.6 66 11.7
2004-03-24 08:40:28 51°18.823 2°52.052 69.5 12.7 66 11.8
2004-03-24 08:40:34 51°18.832 2°52.083 69.4 12.6 67 11.7
2004-03-24 08:40:38 51°18.837 2°52.103 69.1 12.6 66 11.7
2004-03-24 08:40:44 51°18.846 2°52.133 69.2 12.7 66 11.6
2004-03-24 08:40:49 51°18.853 2°52.159 69.1 12.6 67 11.6
2004-03-24 08:40:54 51°18.86 2°52.185 69.3 12.7 66 11.6
2004-03-24 08:40:58 51°18.866 2°52.205 69.1 12.7 65 11.6
2004-03-24 08:41:04 51°18.874 2°52.236 68.3 12.6 66 11.5
2004-03-24 08:41:09 51°18.882 2°52.261 68.9 12.7 66 11.6
2004-03-24 08:41:14 51°18.888 2°52.287 68.5 12.6 66 11.4
2004-03-24 08:41:20 51°18.897 2°52.317 69.2 12.6 67 11.4
2004-03-24 08:41:24 51°18.903 2°52.338 69.1 12.6 66 11.5
2004-03-24 08:41:29 51°18.909 2°52.363 69.1 12.6 67 11.3
2004-03-24 08:41:34 51°18.916 2°52.389 69.7 12.6 67 11.3
2004-03-24 08:41:40 51°18.925 2°52.419 69.1 12.6 67 11.2
2004-03-24 08:41:44 51°18.93 2°52.44 69 12.5 68 11.2
2004-03-24 08:41:49 51°18.937 2°52.465 69.9 12.6 66 11.2
2004-03-24 08:41:54 51°18.943 2°52.491 69.5 12.6 69 11.2
2004-03-24 08:42:00 51°18.951 2°52.522 70.4 12.5 69 11.1
2004-03-24 08:42:04 51°18.956 2°52.543 71.4 12.5 69 11.1
2004-03-24 08:42:09 51°18.962 2°52.569 71.8 12.6 71 11.1
2004-03-24 08:42:14 51°18.968 2°52.596 72.7 12.6 70 11.1
2004-03-24 08:42:19 51°18.974 2°52.621 72.5 12.6 70 11
2004-03-24 08:42:24 51°18.98 2°52.648 72.5 12.6 71 11
2004-03-24 08:42:29 51°18.986 2°52.674 72.7 12.5 69 11
2004-03-24 08:42:34 51°18.992 2°52.7 72.8 12.6 71 10.9
2004-03-24 08:42:38 51°18.997 2°52.72 72.7 12.5 68 11
2004-03-24 08:42:44 51°19.004 2°52.752 72.5 12.6 72 10.8
2004-03-24 08:42:49 51°19.01 2°52.778 72.6 12.5 68 10.8
2004-03-24 08:42:54 51°19.016 2°52.804 71.8 12.5 70 10.7
2004-03-24 08:42:58 51°19.021 2°52.824 72.8 12.5 70 10.9
2004-03-24 08:43:04 51°19.028 2°52.856 70.8 12.5 72 10.7
2004-03-24 08:43:08 51°19.033 2°52.876 71.9 12.4 68 10.6
2004-03-24 08:43:14 51°19.04 2°52.908 72.2 12.5 71 10.8
2004-03-24 08:43:18 51°19.045 2°52.928 73.3 12.5 71 10.7
2004-03-24 08:43:24 51°19.052 2°52.959 72.5 12.4 71 10.6
2004-03-24 08:43:29 51°19.058 2°52.985 73 12.4 69 10.7
2004-03-24 08:43:34 51°19.064 2°53.01 72 12.4 68 10.7
2004-03-24 08:43:39 51°19.07 2°53.036 72.2 12.5 70 10.7
2004-03-24 08:43:44 51°19.076 2°53.062 71.8 12.5 70 10.6
2004-03-24 08:43:49 51°19.082 2°53.088 72.1 12.4 70 10.6
2004-03-24 08:43:54 51°19.088 2°53.114 72.6 12.5 69 10.6
2004-03-24 08:43:58 51°19.093 2°53.135 73.2 12.6 69 10.6
2004-03-24 08:44:04 51°19.1 2°53.166 72 12.5 68 10.5
2004-03-24 08:44:09 51°19.106 2°53.192 73.1 12.6 69 10.6
2004-03-24 08:44:14 51°19.112 2°53.218 71.7 12.5 67 10.5
2004-03-24 08:44:18 51°19.117 2°53.239 72.8 12.5 71 10.6
2004-03-24 08:44:24 51°19.124 2°53.27 72.9 12.5 71 10.5
2004-03-24 08:44:29 51°19.13 2°53.296 72.4 12.5 68 10.4
2004-03-24 08:44:34 51°19.136 2°53.322 72.5 12.5 71 10.4
2004-03-24 08:44:38 51°19.141 2°53.342 72.2 12.5 71 10.5
2004-03-24 08:44:44 51°19.148 2°53.373 72.9 12.5 69 10.4
2004-03-24 08:44:49 51°19.154 2°53.399 72.4 12.5 69 10.4
2004-03-24 08:44:54 51°19.16 2°53.425 72.3 12.5 70 10.5
2004-03-24 08:44:58 51°19.165 2°53.446 73.1 12.5 72 10.7
2004-03-24 08:45:04 51°19.173 2°53.476 72 12.4 68 10.5
2004-03-24 08:45:08 51°19.177 2°53.497 71.8 12.3 70 10.8
2004-03-24 08:45:14 51°19.185 2°53.528 72.7 12.6 69 10.4
2004-03-24 08:45:19 51°19.191 2°53.554 71.1 12.5 67 10.5
2004-03-24 08:45:24 51°19.197 2°53.58 72.1 12.4 69 10.6
2004-03-24 08:45:29 51°19.203 2°53.605 72.2 12.4 70 10.6
2004-03-24 08:45:34 51°19.209 2°53.631 72.5 12.4 70 10.5
2004-03-24 08:45:38 51°19.214 2°53.652 72.1 12.4 69 10.6
2004-03-24 08:45:44 51°19.221 2°53.682 71.8 12.4 69 10.4
2004-03-24 08:45:49 51°19.228 2°53.708 71.8 12.4 69 10.5
2004-03-24 08:45:54 51°19.234 2°53.734 72.1 12.4 71 10.6
2004-03-24 08:45:59 51°19.239 2°53.76 72.2 12.5 70 10.5
2004-03-24 08:46:04 51°19.246 2°53.785 72.5 12.4 68 10.5
2004-03-24 08:46:09 51°19.252 2°53.811 72.1 12.4 70 10.5
2004-03-24 08:46:14 51°19.258 2°53.836 71.9 12.3 68 10.5
2004-03-24 08:46:18 51°19.263 2°53.856 71.4 12.2 68 10.5
2004-03-24 08:46:24 51°19.27 2°53.887 72 12.5 70 10.4
2004-03-24 08:46:29 51°19.276 2°53.913 71.8 12.4 70 10.4
2004-03-24 08:46:34 51°19.282 2°53.939 72.3 12.4 69 10.5
2004-03-24 08:46:38 51°19.287 2°53.959 72.2 12.4 69 10.4
2004-03-24 08:46:44 51°19.294 2°53.99 72.9 12.3 70 10.6
2004-03-24 08:46:48 51°19.299 2°54.011 72.3 12.3 70 10.5
2004-03-24 08:46:54 51°19.306 2°54.042 72.2 12.4 69 10.6
2004-03-24 08:46:58 51°19.311 2°54.062 72.2 12.3 70 10.5
2004-03-24 08:47:04 51°19.318 2°54.093 72.6 12.3 69 10.5
2004-03-24 08:47:08 51°19.322 2°54.113 72.5 12.3 71 10.5
2004-03-24 08:47:14 51°19.329 2°54.144 72.5 12.3 69 10.5
2004-03-24 08:47:18 51°19.334 2°54.164 72.6 12.3 70 10.3
2004-03-24 08:47:24 51°19.341 2°54.195 72.6 12.3 68 10.5
2004-03-24 08:47:28 51°19.346 2°54.215 71.4 12.3 70 10.5
2004-03-24 08:47:34 51°19.353 2°54.245 72.1 12.2 70 10.5
2004-03-24 08:47:39 51°19.359 2°54.271 71.7 12.1 69 10.5
2004-03-24 08:47:44 51°19.365 2°54.296 72.5 12.3 70 10.4
2004-03-24 08:47:48 51°19.37 2°54.317 72.5 12.3 70 10.5
2004-03-24 08:47:54 51°19.377 2°54.347 71.6 12.2 68 10.3
2004-03-24 08:47:58 51°19.382 2°54.367 72.1 12.2 70 10.4
2004-03-24 08:48:04 51°19.389 2°54.397 72.5 12.1 69 10.3
2004-03-24 08:48:08 51°19.393 2°54.418 73 12.2 71 10.5
2004-03-24 08:48:14 51°19.4 2°54.448 72.5 12.3 69 10.6
2004-03-24 08:48:18 51°19.405 2°54.468 71.8 12.2 69 10.5
2004-03-24 08:48:24 51°19.412 2°54.499 71.7 12.1 70 10.6
2004-03-24 08:48:29 51°19.418 2°54.524 72 12.1 69 10.6
2004-03-24 08:48:34 51°19.424 2°54.549 72 12.2 69 10.6
2004-03-24 08:48:39 51°19.43 2°54.575 71.9 12.3 69 10.6
2004-03-24 08:48:44 51°19.436 2°54.6 72.4 12.2 71 10.5
2004-03-24 08:48:49 51°19.442 2°54.625 72.8 12.2 69 10.6
2004-03-24 08:48:54 51°19.447 2°54.651 73.3 12.2 72 10.6
2004-03-24 08:48:59 51°19.453 2°54.676 72.8 12.2 68 10.5
2004-03-24 08:49:04 51°19.46 2°54.701 71.6 12.2 69 10.4
2004-03-24 08:49:09 51°19.466 2°54.726 72 12.2 69 10.4
2004-03-24 08:49:14 51°19.471 2°54.752 71.8 12.2 70 10.5
2004-03-24 08:49:19 51°19.477 2°54.777 72.3 12.3 71 10.5
2004-03-24 08:49:24 51°19.483 2°54.803 72.6 12.2 70 10.6
2004-03-24 08:49:29 51°19.488 2°54.828 73.3 12.3 73 10.5
2004-03-24 08:49:34 51°19.494 2°54.854 73.5 12.3 73 10.4
2004-03-24 08:49:39 51°19.499 2°54.88 73.7 12.3 73 10.5
2004-03-24 08:49:44 51°19.505 2°54.905 74.2 12.2 70 10.6
2004-03-24 08:49:49 51°19.51 2°54.931 73.3 12.2 72 10.6
2004-03-24 08:49:54 51°19.517 2°54.957 72.6 12.2 68 10.5
2004-03-24 08:49:59 51°19.522 2°54.982 72.4 12.3 70 10.4
2004-03-24 08:50:04 51°19.528 2°55.007 72.5 12.2 69 10.5
2004-03-24 08:50:09 51°19.535 2°55.032 72.3 12.3 69 10.6
2004-03-24 08:50:14 51°19.54 2°55.058 72.1 12.2 70 10.7
2004-03-24 08:50:18 51°19.545 2°55.078 71.9 12.2 70 10.4
2004-03-24 08:50:24 51°19.553 2°55.108 73 12.2 66 10.3
2004-03-24 08:50:29 51°19.558 2°55.134 71.8 12.2 71 10.4
2004-03-24 08:50:34 51°19.565 2°55.158 71.8 12.1 66 10.4
2004-03-24 08:50:38 51°19.569 2°55.179 71.6 12.1 66 10.4
2004-03-24 08:50:44 51°19.577 2°55.209 71.4 12.2 69 10.5
2004-03-24 08:50:49 51°19.583 2°55.234 71.9 12.2 70 10.4
2004-03-24 08:50:54 51°19.588 2°55.259 72.1 12.1 70 10.4
2004-03-24 08:50:58 51°19.593 2°55.279 72.6 12.1 69 10.4
2004-03-24 08:51:04 51°19.6 2°55.309 72.7 12.2 70 10.3
2004-03-24 08:51:09 51°19.606 2°55.335 72.3 12.1 69 10.3
2004-03-24 08:51:14 51°19.612 2°55.36 72.5 12.1 70 10.4
2004-03-24 08:51:19 51°19.617 2°55.385 72.6 12.1 70 10.4
2004-03-24 08:51:24 51°19.624 2°55.41 72 12.1 69 10.4
2004-03-24 08:51:29 51°19.629 2°55.435 71.8 12.1 72 10.3
2004-03-24 08:51:34 51°19.635 2°55.461 72.8 12.1 69 10.2
2004-03-24 08:51:39 51°19.641 2°55.486 72.5 12.1 71 10.5
2004-03-24 08:51:44 51°19.646 2°55.511 72 12.2 71 10.4
2004-03-24 08:51:48 51°19.651 2°55.532 72.5 12.2 71 10.4
2004-03-24 08:51:54 51°19.658 2°55.562 72.3 12.1 69 10.3
2004-03-24 08:51:59 51°19.664 2°55.587 73.2 12.2 72 10.3
2004-03-24 08:52:04 51°19.67 2°55.612 72.1 12.2 70 10.4
2004-03-24 08:52:08 51°19.674 2°55.632 71.8 12.2 69 10.5
2004-03-24 08:52:14 51°19.682 2°55.662 71.6 12.1 68 10.3
2004-03-24 08:52:19 51°19.688 2°55.686 71.1 12.1 69 10.3
2004-03-24 08:52:24 51°19.694 2°55.712 71.7 12.2 71 10.4
2004-03-24 08:52:28 51°19.699 2°55.732 72.5 12.2 68 10.3
2004-03-24 08:52:34 51°19.706 2°55.762 71.8 12.1 70 10.3
2004-03-24 08:52:38 51°19.71 2°55.782 71.9 12 69 10.3
2004-03-24 08:52:44 51°19.716 2°55.813 72.7 12 72 10.2
2004-03-24 08:52:49 51°19.721 2°55.838 74.2 12.2 73 10.3
2004-03-24 08:52:54 51°19.726 2°55.864 74.6 12.2 73 10.3
2004-03-24 08:52:59 51°19.732 2°55.89 74.8 12.1 71 10.4
2004-03-24 08:53:04 51°19.736 2°55.916 74.7 12.3 73 10.3
2004-03-24 08:53:09 51°19.742 2°55.941 74.2 12.2 71 10.3
2004-03-24 08:53:14 51°19.747 2°55.966 73.3 12 71 10.2
2004-03-24 08:53:18 51°19.751 2°55.987 74.3 12 73 10.2
2004-03-24 08:53:24 51°19.758 2°56.017 74 12.3 71 10.1
2004-03-24 08:53:29 51°19.763 2°56.043 73.8 12.1 70 10.3
2004-03-24 08:53:34 51°19.767 2°56.069 74 12.1 75 10.2
2004-03-24 08:53:38 51°19.772 2°56.089 74.7 12.2 71 10.2
2004-03-24 08:53:44 51°19.777 2°56.12 74.5 12.1 75 10.2
2004-03-24 08:53:48 51°19.782 2°56.14 75.9 12.1 74 10.2
2004-03-24 08:53:54 51°19.787 2°56.171 75 12.1 73 10.1
2004-03-24 08:54:00 51°19.794 2°56.202 75 12.2 72 10.1
2004-03-24 08:54:04 51°19.798 2°56.222 74.7 12.1 72 10.1
2004-03-24 08:54:08 51°19.802 2°56.243 74.3 12.1 71 10.1
2004-03-24 08:54:14 51°19.808 2°56.273 74 12.2 72 10
2004-03-24 08:54:18 51°19.813 2°56.293 74 12.1 71 10.1
2004-03-24 08:54:24 51°19.818 2°56.325 73.9 12.1 75 10.1
2004-03-24 08:54:29 51°19.824 2°56.35 73.7 12.2 70 10
2004-03-24 08:54:34 51°19.829 2°56.375 73.2 12.1 72 10.1
2004-03-24 08:54:40 51°19.835 2°56.406 74.6 12.2 73 10